sensor_id;sensor_type;location;lat;lon;timestamp;P1;durP1;ratioP1;P2;durP2;ratioP2
68792;SDS011;55778;54.346;10.210;2022-12-05T00:00:28;14.57;;;5.82;;
68792;SDS011;55778;54.346;10.210;2022-12-05T00:02:53;14.82;;;5.90;;
68792;SDS011;55778;54.346;10.210;2022-12-05T00:05:18;12.80;;;5.30;;
68792;SDS011;55778;54.346;10.210;2022-12-05T00:07:44;13.88;;;5.50;;
68792;SDS011;55778;54.346;10.210;2022-12-05T00:10:10;13.75;;;5.22;;
68792;SDS011;55778;54.346;10.210;2022-12-05T00:12:35;10.43;;;4.82;;
68792;SDS011;55778;54.346;10.210;2022-12-05T00:15:00;9.43;;;4.57;;
68792;SDS011;55778;54.346;10.210;2022-12-05T00:17:26;13.88;;;4.57;;
68792;SDS011;55778;54.346;10.210;2022-12-05T00:19:51;10.15;;;4.55;;
68792;SDS011;55778;54.346;10.210;2022-12-05T00:22:17;8.93;;;4.65;;
68792;SDS011;55778;54.346;10.210;2022-12-05T00:24:42;14.73;;;4.70;;
68792;SDS011;55778;54.346;10.210;2022-12-05T00:27:08;11.10;;;4.65;;
68792;SDS011;55778;54.346;10.210;2022-12-05T00:29:33;9.90;;;4.78;;
68792;SDS011;55778;54.346;10.210;2022-12-05T00:31:58;9.68;;;4.50;;
68792;SDS011;55778;54.346;10.210;2022-12-05T00:34:24;11.27;;;4.60;;
68792;SDS011;55778;54.346;10.210;2022-12-05T00:36:50;10.23;;;4.45;;
68792;SDS011;55778;54.346;10.210;2022-12-05T00:39:15;11.45;;;4.07;;
68792;SDS011;55778;54.346;10.210;2022-12-05T00:41:41;11.10;;;4.57;;
68792;SDS011;55778;54.346;10.210;2022-12-05T00:44:07;7.90;;;4.35;;
68792;SDS011;55778;54.346;10.210;2022-12-05T00:46:35;8.45;;;4.05;;
68792;SDS011;55778;54.346;10.210;2022-12-05T00:49:02;9.48;;;4.30;;
68792;SDS011;55778;54.346;10.210;2022-12-05T00:51:29;7.53;;;3.92;;
68792;SDS011;55778;54.346;10.210;2022-12-05T00:54:00;9.10;;;4.20;;
68792;SDS011;55778;54.346;10.210;2022-12-05T00:56:28;9.50;;;4.55;;
68792;SDS011;55778;54.346;10.210;2022-12-05T00:58:55;9.52;;;4.03;;
68792;SDS011;55778;54.346;10.210;2022-12-05T01:01:23;9.88;;;4.07;;
68792;SDS011;55778;54.346;10.210;2022-12-05T01:03:54;7.97;;;4.20;;
68792;SDS011;55778;54.346;10.210;2022-12-05T01:06:21;6.97;;;3.80;;
68792;SDS011;55778;54.346;10.210;2022-12-05T01:08:48;6.78;;;3.40;;
68792;SDS011;55778;54.346;10.210;2022-12-05T01:11:14;9.65;;;3.92;;
68792;SDS011;55778;54.346;10.210;2022-12-05T01:13:41;10.32;;;3.90;;
68792;SDS011;55778;54.346;10.210;2022-12-05T01:16:21;11.70;;;4.05;;
68792;SDS011;55778;54.346;10.210;2022-12-05T01:18:51;8.93;;;4.00;;
68792;SDS011;55778;54.346;10.210;2022-12-05T01:21:17;7.75;;;3.72;;
68792;SDS011;55778;54.346;10.210;2022-12-05T01:23:43;9.70;;;3.70;;
68792;SDS011;55778;54.346;10.210;2022-12-05T01:26:10;8.60;;;3.60;;
68792;SDS011;55778;54.346;10.210;2022-12-05T01:28:38;7.43;;;3.40;;
68792;SDS011;55778;54.346;10.210;2022-12-05T01:31:08;8.45;;;3.55;;
68792;SDS011;55778;54.346;10.210;2022-12-05T01:33:41;7.90;;;3.78;;
68792;SDS011;55778;54.346;10.210;2022-12-05T01:36:09;10.35;;;3.72;;
68792;SDS011;55778;54.346;10.210;2022-12-05T01:38:37;10.07;;;3.78;;
68792;SDS011;55778;54.346;10.210;2022-12-05T01:41:04;7.05;;;3.75;;
68792;SDS011;55778;54.346;10.210;2022-12-05T01:43:31;8.50;;;3.60;;
68792;SDS011;55778;54.346;10.210;2022-12-05T01:45:56;10.07;;;3.63;;
68792;SDS011;55778;54.346;10.210;2022-12-05T01:48:24;7.90;;;3.60;;
68792;SDS011;55778;54.346;10.210;2022-12-05T01:50:53;9.60;;;3.63;;
68792;SDS011;55778;54.346;10.210;2022-12-05T01:53:19;9.10;;;4.28;;
68792;SDS011;55778;54.346;10.210;2022-12-05T01:55:46;7.47;;;3.88;;
68792;SDS011;55778;54.346;10.210;2022-12-05T01:58:14;9.10;;;4.47;;
68792;SDS011;55778;54.346;10.210;2022-12-05T02:00:40;9.80;;;4.25;;
68792;SDS011;55778;54.346;10.210;2022-12-05T02:03:07;7.15;;;3.90;;
68792;SDS011;55778;54.346;10.210;2022-12-05T02:05:35;11.20;;;4.22;;
68792;SDS011;55778;54.346;10.210;2022-12-05T02:08:03;8.20;;;3.65;;
68792;SDS011;55778;54.346;10.210;2022-12-05T02:10:41;9.65;;;4.30;;
68792;SDS011;55778;54.346;10.210;2022-12-05T02:15:50;8.07;;;3.90;;
68792;SDS011;55778;54.346;10.210;2022-12-05T02:18:27;7.57;;;3.58;;
68792;SDS011;55778;54.346;10.210;2022-12-05T02:30:05;10.98;;;4.43;;
68792;SDS011;55778;54.346;10.210;2022-12-05T02:44:04;11.65;;;4.50;;
68792;SDS011;55778;54.346;10.210;2022-12-05T02:46:40;8.47;;;4.17;;
68792;SDS011;55778;54.346;10.210;2022-12-05T02:49:10;9.85;;;4.25;;
68792;SDS011;55778;54.346;10.210;2022-12-05T02:51:42;10.05;;;4.00;;
68792;SDS011;55778;54.346;10.210;2022-12-05T02:56:42;10.07;;;4.30;;
68792;SDS011;55778;54.346;10.210;2022-12-05T02:59:10;10.95;;;4.82;;
68792;SDS011;55778;54.346;10.210;2022-12-05T03:01:35;9.25;;;4.32;;
68792;SDS011;55778;54.346;10.210;2022-12-05T03:04:01;9.07;;;4.38;;
68792;SDS011;55778;54.346;10.210;2022-12-05T03:06:38;12.25;;;5.22;;
68792;SDS011;55778;54.346;10.210;2022-12-05T03:09:11;9.95;;;5.10;;
68792;SDS011;55778;54.346;10.210;2022-12-05T03:11:41;10.07;;;4.55;;
68792;SDS011;55778;54.346;10.210;2022-12-05T03:14:14;13.18;;;5.55;;
68792;SDS011;55778;54.346;10.210;2022-12-05T03:16:48;11.50;;;5.10;;
68792;SDS011;55778;54.346;10.210;2022-12-05T03:21:54;9.80;;;4.78;;
68792;SDS011;55778;54.346;10.210;2022-12-05T03:24:26;12.15;;;5.25;;
68792;SDS011;55778;54.346;10.210;2022-12-05T03:32:23;10.98;;;4.65;;
68792;SDS011;55778;54.346;10.210;2022-12-05T03:43:18;12.68;;;5.43;;
68792;SDS011;55778;54.346;10.210;2022-12-05T03:48:33;13.63;;;5.53;;
68792;SDS011;55778;54.346;10.210;2022-12-05T03:51:05;11.48;;;5.50;;
68792;SDS011;55778;54.346;10.210;2022-12-05T03:53:35;12.80;;;5.30;;
68792;SDS011;55778;54.346;10.210;2022-12-05T03:56:09;11.48;;;5.40;;
68792;SDS011;55778;54.346;10.210;2022-12-05T03:58:57;15.50;;;5.55;;
68792;SDS011;55778;54.346;10.210;2022-12-05T04:01:30;13.73;;;5.60;;
68792;SDS011;55778;54.346;10.210;2022-12-05T04:04:03;12.18;;;5.25;;
68792;SDS011;55778;54.346;10.210;2022-12-05T04:06:35;15.55;;;6.00;;
68792;SDS011;55778;54.346;10.210;2022-12-05T04:11:34;14.20;;;6.13;;
68792;SDS011;55778;54.346;10.210;2022-12-05T04:14:10;13.90;;;5.45;;
68792;SDS011;55778;54.346;10.210;2022-12-05T04:21:48;13.93;;;5.68;;
68792;SDS011;55778;54.346;10.210;2022-12-05T04:24:27;17.40;;;6.53;;
68792;SDS011;55778;54.346;10.210;2022-12-05T04:32:20;12.73;;;5.85;;
68792;SDS011;55778;54.346;10.210;2022-12-05T04:34:54;13.30;;;5.45;;
68792;SDS011;55778;54.346;10.210;2022-12-05T04:37:24;15.07;;;5.57;;
68792;SDS011;55778;54.346;10.210;2022-12-05T04:39:57;15.23;;;5.75;;
68792;SDS011;55778;54.346;10.210;2022-12-05T04:42:50;15.73;;;5.80;;
68792;SDS011;55778;54.346;10.210;2022-12-05T04:45:18;12.35;;;5.45;;
68792;SDS011;55778;54.346;10.210;2022-12-05T04:47:52;12.70;;;5.07;;
68792;SDS011;55778;54.346;10.210;2022-12-05T04:50:22;10.23;;;4.50;;
68792;SDS011;55778;54.346;10.210;2022-12-05T04:52:51;14.63;;;5.18;;
68792;SDS011;55778;54.346;10.210;2022-12-05T04:55:22;12.45;;;4.80;;
68792;SDS011;55778;54.346;10.210;2022-12-05T04:57:54;13.40;;;5.47;;
68792;SDS011;55778;54.346;10.210;2022-12-05T05:00:24;12.85;;;5.07;;
68792;SDS011;55778;54.346;10.210;2022-12-05T05:02:58;13.60;;;5.32;;
68792;SDS011;55778;54.346;10.210;2022-12-05T05:05:31;12.60;;;5.25;;
68792;SDS011;55778;54.346;10.210;2022-12-05T05:07:59;12.32;;;5.18;;
68792;SDS011;55778;54.346;10.210;2022-12-05T05:10:38;11.13;;;5.15;;
68792;SDS011;55778;54.346;10.210;2022-12-05T05:13:10;10.68;;;5.05;;
68792;SDS011;55778;54.346;10.210;2022-12-05T05:15:36;10.77;;;4.25;;
68792;SDS011;55778;54.346;10.210;2022-12-05T05:18:01;12.20;;;4.65;;
68792;SDS011;55778;54.346;10.210;2022-12-05T05:20:27;11.52;;;5.22;;
68792;SDS011;55778;54.346;10.210;2022-12-05T05:22:56;9.25;;;4.82;;
68792;SDS011;55778;54.346;10.210;2022-12-05T05:25:22;10.18;;;4.78;;
68792;SDS011;55778;54.346;10.210;2022-12-05T05:27:49;9.02;;;4.82;;
68792;SDS011;55778;54.346;10.210;2022-12-05T05:30:15;11.63;;;4.78;;
68792;SDS011;55778;54.346;10.210;2022-12-05T05:32:42;10.60;;;4.45;;
68792;SDS011;55778;54.346;10.210;2022-12-05T05:35:07;9.60;;;4.25;;
68792;SDS011;55778;54.346;10.210;2022-12-05T05:37:33;10.50;;;4.90;;
68792;SDS011;55778;54.346;10.210;2022-12-05T05:39:58;12.23;;;5.00;;
68792;SDS011;55778;54.346;10.210;2022-12-05T05:42:24;11.00;;;4.60;;
68792;SDS011;55778;54.346;10.210;2022-12-05T05:44:49;13.93;;;5.25;;
68792;SDS011;55778;54.346;10.210;2022-12-05T05:47:15;12.88;;;5.20;;
68792;SDS011;55778;54.346;10.210;2022-12-05T05:49:40;13.15;;;5.30;;
68792;SDS011;55778;54.346;10.210;2022-12-05T05:52:06;10.02;;;3.90;;
68792;SDS011;55778;54.346;10.210;2022-12-05T05:54:31;12.25;;;5.45;;
68792;SDS011;55778;54.346;10.210;2022-12-05T05:56:56;12.52;;;5.00;;
68792;SDS011;55778;54.346;10.210;2022-12-05T05:59:22;14.80;;;5.10;;
68792;SDS011;55778;54.346;10.210;2022-12-05T06:01:47;11.80;;;4.72;;
68792;SDS011;55778;54.346;10.210;2022-12-05T06:04:13;14.38;;;5.35;;
68792;SDS011;55778;54.346;10.210;2022-12-05T06:06:39;12.90;;;5.40;;
68792;SDS011;55778;54.346;10.210;2022-12-05T06:09:05;14.07;;;4.85;;
68792;SDS011;55778;54.346;10.210;2022-12-05T06:11:31;13.43;;;5.95;;
68792;SDS011;55778;54.346;10.210;2022-12-05T06:13:57;12.38;;;5.82;;
68792;SDS011;55778;54.346;10.210;2022-12-05T06:16:26;14.95;;;5.95;;
68792;SDS011;55778;54.346;10.210;2022-12-05T06:18:52;13.18;;;6.28;;
68792;SDS011;55778;54.346;10.210;2022-12-05T06:21:17;11.88;;;4.88;;
68792;SDS011;55778;54.346;10.210;2022-12-05T06:23:43;12.48;;;5.75;;
68792;SDS011;55778;54.346;10.210;2022-12-05T06:26:12;11.23;;;4.93;;
68792;SDS011;55778;54.346;10.210;2022-12-05T06:28:40;11.95;;;5.72;;
68792;SDS011;55778;54.346;10.210;2022-12-05T06:31:09;15.90;;;6.05;;
68792;SDS011;55778;54.346;10.210;2022-12-05T06:33:36;13.65;;;5.05;;
68792;SDS011;55778;54.346;10.210;2022-12-05T06:36:03;13.93;;;5.10;;
68792;SDS011;55778;54.346;10.210;2022-12-05T06:38:30;10.90;;;5.43;;
68792;SDS011;55778;54.346;10.210;2022-12-05T06:40:56;14.18;;;5.68;;
68792;SDS011;55778;54.346;10.210;2022-12-05T06:43:21;15.30;;;5.75;;
68792;SDS011;55778;54.346;10.210;2022-12-05T06:45:47;13.55;;;5.97;;
68792;SDS011;55778;54.346;10.210;2022-12-05T06:48:12;12.50;;;5.47;;
68792;SDS011;55778;54.346;10.210;2022-12-05T06:50:38;12.52;;;5.20;;
68792;SDS011;55778;54.346;10.210;2022-12-05T06:53:03;15.88;;;5.40;;
68792;SDS011;55778;54.346;10.210;2022-12-05T06:55:28;14.65;;;5.68;;
68792;SDS011;55778;54.346;10.210;2022-12-05T06:57:54;15.85;;;6.15;;
68792;SDS011;55778;54.346;10.210;2022-12-05T07:00:19;12.85;;;5.43;;
68792;SDS011;55778;54.346;10.210;2022-12-05T07:03:03;15.13;;;5.85;;
68792;SDS011;55778;54.346;10.210;2022-12-05T07:05:29;13.80;;;5.65;;
68792;SDS011;55778;54.346;10.210;2022-12-05T07:07:54;17.52;;;5.30;;
68792;SDS011;55778;54.346;10.210;2022-12-05T07:10:20;12.52;;;5.13;;
68792;SDS011;55778;54.346;10.210;2022-12-05T07:12:45;13.55;;;5.00;;
68792;SDS011;55778;54.346;10.210;2022-12-05T07:15:11;12.73;;;5.28;;
68792;SDS011;55778;54.346;10.210;2022-12-05T07:17:36;13.10;;;5.10;;
68792;SDS011;55778;54.346;10.210;2022-12-05T07:20:03;14.80;;;5.28;;
68792;SDS011;55778;54.346;10.210;2022-12-05T07:22:33;12.13;;;5.00;;
68792;SDS011;55778;54.346;10.210;2022-12-05T07:24:59;13.07;;;4.95;;
68792;SDS011;55778;54.346;10.210;2022-12-05T07:27:25;11.45;;;4.95;;
68792;SDS011;55778;54.346;10.210;2022-12-05T07:29:50;13.07;;;4.97;;
68792;SDS011;55778;54.346;10.210;2022-12-05T07:32:16;11.32;;;4.97;;
68792;SDS011;55778;54.346;10.210;2022-12-05T07:34:41;11.10;;;4.80;;
68792;SDS011;55778;54.346;10.210;2022-12-05T07:37:07;10.35;;;4.45;;
68792;SDS011;55778;54.346;10.210;2022-12-05T07:39:32;11.30;;;4.32;;
68792;SDS011;55778;54.346;10.210;2022-12-05T07:41:57;10.38;;;4.05;;
68792;SDS011;55778;54.346;10.210;2022-12-05T07:44:23;9.10;;;3.80;;
68792;SDS011;55778;54.346;10.210;2022-12-05T07:46:48;9.98;;;4.22;;
68792;SDS011;55778;54.346;10.210;2022-12-05T07:49:14;10.07;;;3.92;;
68792;SDS011;55778;54.346;10.210;2022-12-05T07:51:42;10.43;;;4.60;;
68792;SDS011;55778;54.346;10.210;2022-12-05T07:54:07;11.15;;;4.03;;
68792;SDS011;55778;54.346;10.210;2022-12-05T07:56:33;11.93;;;4.43;;
68792;SDS011;55778;54.346;10.210;2022-12-05T07:58:58;11.50;;;4.30;;
68792;SDS011;55778;54.346;10.210;2022-12-05T08:01:24;9.45;;;4.22;;
68792;SDS011;55778;54.346;10.210;2022-12-05T08:03:53;13.32;;;3.67;;
68792;SDS011;55778;54.346;10.210;2022-12-05T08:06:20;11.90;;;4.30;;
68792;SDS011;55778;54.346;10.210;2022-12-05T08:08:48;10.52;;;4.00;;
68792;SDS011;55778;54.346;10.210;2022-12-05T08:11:16;10.00;;;4.05;;
68792;SDS011;55778;54.346;10.210;2022-12-05T08:13:44;7.43;;;3.90;;
68792;SDS011;55778;54.346;10.210;2022-12-05T08:16:11;8.80;;;3.60;;
68792;SDS011;55778;54.346;10.210;2022-12-05T08:18:38;10.48;;;3.60;;
68792;SDS011;55778;54.346;10.210;2022-12-05T08:21:05;10.57;;;3.53;;
68792;SDS011;55778;54.346;10.210;2022-12-05T08:23:32;9.88;;;3.90;;
68792;SDS011;55778;54.346;10.210;2022-12-05T08:26:04;10.60;;;3.13;;
68792;SDS011;55778;54.346;10.210;2022-12-05T08:28:32;9.75;;;3.75;;
68792;SDS011;55778;54.346;10.210;2022-12-05T08:31:31;10.88;;;3.95;;
68792;SDS011;55778;54.346;10.210;2022-12-05T08:33:50;11.77;;;4.20;;
68792;SDS011;55778;54.346;10.210;2022-12-05T08:36:16;9.30;;;4.25;;
68792;SDS011;55778;54.346;10.210;2022-12-05T08:38:43;10.05;;;3.85;;
68792;SDS011;55778;54.346;10.210;2022-12-05T08:41:10;8.10;;;3.60;;
68792;SDS011;55778;54.346;10.210;2022-12-05T08:43:37;10.63;;;3.90;;
68792;SDS011;55778;54.346;10.210;2022-12-05T08:46:03;6.93;;;3.50;;
68792;SDS011;55778;54.346;10.210;2022-12-05T08:48:29;9.98;;;4.00;;
68792;SDS011;55778;54.346;10.210;2022-12-05T08:50:56;10.60;;;3.63;;
68792;SDS011;55778;54.346;10.210;2022-12-05T08:53:24;10.23;;;4.20;;
68792;SDS011;55778;54.346;10.210;2022-12-05T08:55:49;12.20;;;4.20;;
68792;SDS011;55778;54.346;10.210;2022-12-05T08:58:15;10.02;;;4.22;;
68792;SDS011;55778;54.346;10.210;2022-12-05T09:00:41;12.05;;;4.55;;
68792;SDS011;55778;54.346;10.210;2022-12-05T09:03:08;12.50;;;4.82;;
68792;SDS011;55778;54.346;10.210;2022-12-05T09:05:35;13.32;;;4.38;;
68792;SDS011;55778;54.346;10.210;2022-12-05T09:08:01;12.13;;;4.60;;
68792;SDS011;55778;54.346;10.210;2022-12-05T09:10:26;11.95;;;5.05;;
68792;SDS011;55778;54.346;10.210;2022-12-05T09:12:52;10.82;;;5.10;;
68792;SDS011;55778;54.346;10.210;2022-12-05T09:15:17;13.75;;;4.63;;
68792;SDS011;55778;54.346;10.210;2022-12-05T09:17:43;12.93;;;5.47;;
68792;SDS011;55778;54.346;10.210;2022-12-05T09:20:09;14.23;;;6.00;;
68792;SDS011;55778;54.346;10.210;2022-12-05T09:22:37;14.85;;;5.38;;
68792;SDS011;55778;54.346;10.210;2022-12-05T09:25:04;21.08;;;5.70;;
68792;SDS011;55778;54.346;10.210;2022-12-05T09:27:30;17.23;;;6.18;;
68792;SDS011;55778;54.346;10.210;2022-12-05T09:29:55;19.92;;;6.82;;
68792;SDS011;55778;54.346;10.210;2022-12-05T09:32:20;18.58;;;6.47;;
68792;SDS011;55778;54.346;10.210;2022-12-05T09:34:46;16.55;;;6.57;;
68792;SDS011;55778;54.346;10.210;2022-12-05T09:37:11;16.95;;;6.45;;
68792;SDS011;55778;54.346;10.210;2022-12-05T09:39:37;18.20;;;7.03;;
68792;SDS011;55778;54.346;10.210;2022-12-05T09:48:08;17.02;;;6.50;;
68792;SDS011;55778;54.346;10.210;2022-12-05T09:53:28;20.13;;;7.88;;
68792;SDS011;55778;54.346;10.210;2022-12-05T10:01:25;23.48;;;7.47;;
68792;SDS011;55778;54.346;10.210;2022-12-05T10:17:40;22.65;;;8.98;;
68792;SDS011;55778;54.346;10.210;2022-12-05T10:22:46;23.38;;;8.32;;
68792;SDS011;55778;54.346;10.210;2022-12-05T10:25:16;24.60;;;7.97;;
68792;SDS011;55778;54.346;10.210;2022-12-05T10:27:52;21.45;;;8.43;;
68792;SDS011;55778;54.346;10.210;2022-12-05T10:30:23;24.50;;;8.38;;
68792;SDS011;55778;54.346;10.210;2022-12-05T10:32:52;17.45;;;7.03;;
68792;SDS011;55778;54.346;10.210;2022-12-05T10:38:03;17.95;;;6.38;;
68792;SDS011;55778;54.346;10.210;2022-12-05T10:40:35;17.17;;;5.70;;
68792;SDS011;55778;54.346;10.210;2022-12-05T10:43:07;15.15;;;5.22;;
68792;SDS011;55778;54.346;10.210;2022-12-05T10:45:39;14.05;;;5.25;;
68792;SDS011;55778;54.346;10.210;2022-12-05T10:48:08;14.75;;;5.40;;
68792;SDS011;55778;54.346;10.210;2022-12-05T10:50:36;15.48;;;5.60;;
68792;SDS011;55778;54.346;10.210;2022-12-05T10:53:04;14.52;;;5.65;;
68792;SDS011;55778;54.346;10.210;2022-12-05T10:55:33;19.58;;;6.45;;
68792;SDS011;55778;54.346;10.210;2022-12-05T10:58:09;17.65;;;6.03;;
68792;SDS011;55778;54.346;10.210;2022-12-05T11:00:38;18.10;;;5.28;;
68792;SDS011;55778;54.346;10.210;2022-12-05T11:03:26;17.30;;;5.45;;
68792;SDS011;55778;54.346;10.210;2022-12-05T11:06:01;17.95;;;6.00;;
68792;SDS011;55778;54.346;10.210;2022-12-05T11:08:41;19.55;;;6.85;;
68792;SDS011;55778;54.346;10.210;2022-12-05T11:11:25;17.10;;;6.38;;
68792;SDS011;55778;54.346;10.210;2022-12-05T11:14:04;17.45;;;6.28;;
68792;SDS011;55778;54.346;10.210;2022-12-05T11:16:32;16.55;;;5.88;;
68792;SDS011;55778;54.346;10.210;2022-12-05T11:21:42;17.25;;;6.07;;
68792;SDS011;55778;54.346;10.210;2022-12-05T11:24:22;18.02;;;5.93;;
68792;SDS011;55778;54.346;10.210;2022-12-05T11:27:00;19.05;;;6.20;;
68792;SDS011;55778;54.346;10.210;2022-12-05T11:29:56;19.40;;;6.30;;
68792;SDS011;55778;54.346;10.210;2022-12-05T11:32:22;21.95;;;7.00;;
68792;SDS011;55778;54.346;10.210;2022-12-05T11:35:04;19.77;;;6.63;;
68792;SDS011;55778;54.346;10.210;2022-12-05T11:37:37;16.83;;;6.50;;
68792;SDS011;55778;54.346;10.210;2022-12-05T11:40:16;20.48;;;7.10;;
68792;SDS011;55778;54.346;10.210;2022-12-05T11:42:58;20.00;;;7.18;;
68792;SDS011;55778;54.346;10.210;2022-12-05T11:48:39;26.98;;;8.05;;
68792;SDS011;55778;54.346;10.210;2022-12-05T12:08:20;21.88;;;6.43;;
68792;SDS011;55778;54.346;10.210;2022-12-05T12:18:50;21.40;;;6.95;;
68792;SDS011;55778;54.346;10.210;2022-12-05T12:38:19;24.88;;;7.13;;
68792;SDS011;55778;54.346;10.210;2022-12-05T12:40:53;22.45;;;6.88;;
68792;SDS011;55778;54.346;10.210;2022-12-05T12:46:41;30.08;;;7.93;;
68792;SDS011;55778;54.346;10.210;2022-12-05T12:49:24;24.20;;;7.90;;
68792;SDS011;55778;54.346;10.210;2022-12-05T12:52:12;25.40;;;8.32;;
68792;SDS011;55778;54.346;10.210;2022-12-05T12:57:53;27.05;;;8.60;;
68792;SDS011;55778;54.346;10.210;2022-12-05T13:01:10;23.98;;;7.82;;
68792;SDS011;55778;54.346;10.210;2022-12-05T13:03:32;27.98;;;8.27;;
68792;SDS011;55778;54.346;10.210;2022-12-05T13:06:08;25.30;;;8.32;;
68792;SDS011;55778;54.346;10.210;2022-12-05T13:08:43;28.35;;;8.48;;
68792;SDS011;55778;54.346;10.210;2022-12-05T13:11:14;22.17;;;7.35;;
68792;SDS011;55778;54.346;10.210;2022-12-05T13:13:43;26.55;;;8.30;;
68792;SDS011;55778;54.346;10.210;2022-12-05T13:16:24;23.95;;;7.28;;
68792;SDS011;55778;54.346;10.210;2022-12-05T13:18:56;22.05;;;7.53;;
68792;SDS011;55778;54.346;10.210;2022-12-05T13:21:23;22.20;;;6.57;;
68792;SDS011;55778;54.346;10.210;2022-12-05T13:23:51;23.08;;;7.00;;
68792;SDS011;55778;54.346;10.210;2022-12-05T13:26:19;22.13;;;6.85;;
68792;SDS011;55778;54.346;10.210;2022-12-05T13:28:54;21.98;;;7.60;;
68792;SDS011;55778;54.346;10.210;2022-12-05T13:31:35;24.45;;;7.53;;
68792;SDS011;55778;54.346;10.210;2022-12-05T13:34:02;22.15;;;7.03;;
68792;SDS011;55778;54.346;10.210;2022-12-05T13:36:29;21.23;;;6.72;;
68792;SDS011;55778;54.346;10.210;2022-12-05T13:39:23;17.95;;;5.90;;
68792;SDS011;55778;54.346;10.210;2022-12-05T13:42:41;21.50;;;6.05;;
68792;SDS011;55778;54.346;10.210;2022-12-05T13:50:13;15.82;;;5.68;;
68792;SDS011;55778;54.346;10.210;2022-12-05T13:55:16;18.88;;;4.88;;
68792;SDS011;55778;54.346;10.210;2022-12-05T13:57:52;12.27;;;4.30;;
68792;SDS011;55778;54.346;10.210;2022-12-05T14:00:20;17.23;;;5.47;;
68792;SDS011;55778;54.346;10.210;2022-12-05T14:03:01;14.82;;;5.18;;
68792;SDS011;55778;54.346;10.210;2022-12-05T14:05:34;13.93;;;4.88;;
68792;SDS011;55778;54.346;10.210;2022-12-05T14:08:46;15.02;;;4.85;;
68792;SDS011;55778;54.346;10.210;2022-12-05T14:15:47;15.75;;;5.35;;
68792;SDS011;55778;54.346;10.210;2022-12-05T14:20:57;14.60;;;5.40;;
68792;SDS011;55778;54.346;10.210;2022-12-05T14:37:53;19.77;;;5.70;;
68792;SDS011;55778;54.346;10.210;2022-12-05T14:45:54;17.58;;;5.35;;
68792;SDS011;55778;54.346;10.210;2022-12-05T14:54:02;15.65;;;5.43;;
68792;SDS011;55778;54.346;10.210;2022-12-05T14:56:31;17.23;;;5.20;;
68792;SDS011;55778;54.346;10.210;2022-12-05T14:59:08;16.00;;;5.70;;
68792;SDS011;55778;54.346;10.210;2022-12-05T15:01:44;15.85;;;5.60;;
68792;SDS011;55778;54.346;10.210;2022-12-05T15:07:17;13.77;;;5.53;;
68792;SDS011;55778;54.346;10.210;2022-12-05T15:09:54;15.68;;;4.80;;
68792;SDS011;55778;54.346;10.210;2022-12-05T15:12:26;17.00;;;5.30;;
68792;SDS011;55778;54.346;10.210;2022-12-05T15:15:12;14.15;;;5.10;;
68792;SDS011;55778;54.346;10.210;2022-12-05T15:26:15;13.93;;;4.60;;
68792;SDS011;55778;54.346;10.210;2022-12-05T15:34:29;15.07;;;4.30;;
68792;SDS011;55778;54.346;10.210;2022-12-05T15:37:20;12.80;;;4.13;;
68792;SDS011;55778;54.346;10.210;2022-12-05T15:45:23;11.98;;;4.68;;
68792;SDS011;55778;54.346;10.210;2022-12-05T15:55:53;12.27;;;4.43;;
68792;SDS011;55778;54.346;10.210;2022-12-05T16:00:55;14.00;;;4.80;;
68792;SDS011;55778;54.346;10.210;2022-12-05T16:03:49;16.88;;;4.35;;
68792;SDS011;55778;54.346;10.210;2022-12-05T16:06:21;14.95;;;4.68;;
68792;SDS011;55778;54.346;10.210;2022-12-05T16:08:56;13.15;;;4.82;;
68792;SDS011;55778;54.346;10.210;2022-12-05T16:11:23;13.27;;;4.85;;
68792;SDS011;55778;54.346;10.210;2022-12-05T16:13:50;14.98;;;5.13;;
68792;SDS011;55778;54.346;10.210;2022-12-05T16:16:23;15.43;;;5.28;;
68792;SDS011;55778;54.346;10.210;2022-12-05T16:18:55;14.75;;;5.30;;
68792;SDS011;55778;54.346;10.210;2022-12-05T16:21:33;11.52;;;4.13;;
68792;SDS011;55778;54.346;10.210;2022-12-05T16:24:26;8.45;;;3.53;;
68792;SDS011;55778;54.346;10.210;2022-12-05T16:26:56;12.18;;;3.70;;
68792;SDS011;55778;54.346;10.210;2022-12-05T16:29:27;20.77;;;7.72;;
68792;SDS011;55778;54.346;10.210;2022-12-05T16:31:55;15.57;;;4.40;;
68792;SDS011;55778;54.346;10.210;2022-12-05T16:34:23;9.52;;;3.85;;
68792;SDS011;55778;54.346;10.210;2022-12-05T16:36:50;13.57;;;4.60;;
68792;SDS011;55778;54.346;10.210;2022-12-05T16:39:18;10.30;;;3.67;;
68792;SDS011;55778;54.346;10.210;2022-12-05T16:41:44;13.20;;;3.83;;
68792;SDS011;55778;54.346;10.210;2022-12-05T16:46:51;11.65;;;4.18;;
68792;SDS011;55778;54.346;10.210;2022-12-05T16:49:19;8.88;;;3.92;;
68792;SDS011;55778;54.346;10.210;2022-12-05T16:54:24;10.18;;;4.00;;
68792;SDS011;55778;54.346;10.210;2022-12-05T16:56:50;13.73;;;4.53;;
68792;SDS011;55778;54.346;10.210;2022-12-05T16:59:20;11.52;;;4.25;;
68792;SDS011;55778;54.346;10.210;2022-12-05T17:02:10;11.18;;;4.07;;
68792;SDS011;55778;54.346;10.210;2022-12-05T17:04:37;10.05;;;3.60;;
68792;SDS011;55778;54.346;10.210;2022-12-05T17:07:03;9.82;;;3.45;;
68792;SDS011;55778;54.346;10.210;2022-12-05T17:09:28;11.85;;;3.45;;
68792;SDS011;55778;54.346;10.210;2022-12-05T17:11:55;8.75;;;3.42;;
68792;SDS011;55778;54.346;10.210;2022-12-05T17:14:45;8.52;;;3.58;;
68792;SDS011;55778;54.346;10.210;2022-12-05T17:17:12;9.60;;;3.63;;
68792;SDS011;55778;54.346;10.210;2022-12-05T17:19:38;10.25;;;3.72;;
68792;SDS011;55778;54.346;10.210;2022-12-05T17:22:03;7.68;;;3.22;;
68792;SDS011;55778;54.346;10.210;2022-12-05T17:24:30;9.10;;;3.58;;
68792;SDS011;55778;54.346;10.210;2022-12-05T17:26:56;9.25;;;3.67;;
68792;SDS011;55778;54.346;10.210;2022-12-05T17:29:21;9.63;;;3.75;;
68792;SDS011;55778;54.346;10.210;2022-12-05T17:31:47;7.75;;;3.47;;
68792;SDS011;55778;54.346;10.210;2022-12-05T17:34:14;9.60;;;3.80;;
68792;SDS011;55778;54.346;10.210;2022-12-05T17:36:41;9.43;;;3.53;;
68792;SDS011;55778;54.346;10.210;2022-12-05T17:39:07;8.57;;;3.30;;
68792;SDS011;55778;54.346;10.210;2022-12-05T17:41:33;9.38;;;3.90;;
68792;SDS011;55778;54.346;10.210;2022-12-05T17:43:59;9.75;;;3.50;;
68792;SDS011;55778;54.346;10.210;2022-12-05T17:46:24;11.15;;;3.60;;
68792;SDS011;55778;54.346;10.210;2022-12-05T17:48:50;9.05;;;3.13;;
68792;SDS011;55778;54.346;10.210;2022-12-05T17:51:16;8.68;;;3.03;;
68792;SDS011;55778;54.346;10.210;2022-12-05T17:53:42;10.45;;;3.33;;
68792;SDS011;55778;54.346;10.210;2022-12-05T17:56:08;8.30;;;3.30;;
68792;SDS011;55778;54.346;10.210;2022-12-05T17:58:34;9.18;;;3.35;;
68792;SDS011;55778;54.346;10.210;2022-12-05T18:01:00;10.18;;;3.35;;
68792;SDS011;55778;54.346;10.210;2022-12-05T18:03:26;8.23;;;3.50;;
68792;SDS011;55778;54.346;10.210;2022-12-05T18:05:52;8.00;;;3.22;;
68792;SDS011;55778;54.346;10.210;2022-12-05T18:08:17;8.15;;;2.97;;
68792;SDS011;55778;54.346;10.210;2022-12-05T18:10:43;9.70;;;4.07;;
68792;SDS011;55778;54.346;10.210;2022-12-05T18:13:10;7.53;;;3.05;;
68792;SDS011;55778;54.346;10.210;2022-12-05T18:15:36;8.32;;;2.63;;
68792;SDS011;55778;54.346;10.210;2022-12-05T18:18:02;8.43;;;2.97;;
68792;SDS011;55778;54.346;10.210;2022-12-05T18:20:30;11.15;;;3.40;;
68792;SDS011;55778;54.346;10.210;2022-12-05T18:22:58;6.03;;;3.40;;